Time;durP1;ratioP1;P1;durP2;ratioP2;P2;SDS_P1;SDS_P2;PMS_P1;PMS_P2;Temp;Humidity;BMP_temperature;BMP_pressure;BME280_temperature;BME280_humidity;BME280_pressure;Samples;Min_cycle;Max_cycle;Signal;HPM_P1;HPM_P2
2023/05/06 00:00:30;;;;;;;11.07;8.13;;;;;;;10.33;100.00;96529.22;10456402;28;20879;-65
2023/05/06 00:05:30;;;;;;;15.17;9.10;;;;;;;10.34;100.00;96528.25;10455677;28;20353;-66
2023/05/06 00:10:31;;;;;;;12.63;8.03;;;;;;;10.39;100.00;96521.75;10456052;28;20278;-66
2023/05/06 00:15:31;;;;;;;12.57;7.87;;;;;;;10.31;100.00;96515.47;10455372;28;20614;-67
2023/05/06 00:20:32;;;;;;;16.70;8.30;;;;;;;10.35;100.00;96518.59;10455429;28;20646;-68
2023/05/06 00:25:32;;;;;;;14.77;10.03;;;;;;;10.29;100.00;96527.06;10455385;28;20777;-70
2023/05/06 00:30:32;;;;;;;14.13;9.90;;;;;;;10.37;100.00;96539.38;10455397;28;20245;-70
2023/05/06 00:35:33;;;;;;;12.17;8.97;;;;;;;10.38;100.00;96536.59;10454943;28;20319;-72
2023/05/06 00:40:33;;;;;;;12.70;8.77;;;;;;;10.38;100.00;96538.41;10454830;28;20199;-73
2023/05/06 00:45:34;;;;;;;11.60;8.80;;;;;;;10.45;100.00;96547.28;10436658;28;20211;-72
2023/05/06 00:50:34;;;;;;;11.30;8.97;;;;;;;10.47;100.00;96543.50;10454546;28;20253;-72
2023/05/06 00:55:36;;;;;;;19.93;10.97;;;;;;;10.32;100.00;96548.53;10454211;28;20251;-72
2023/05/06 01:00:37;;;;;;;19.30;12.33;;;;;;;10.30;100.00;96547.84;10419473;28;20206;-71
2023/05/06 01:06:00;;;;;;;13.87;10.40;;;;;;;10.43;100.00;96554.47;10453866;28;20645;-71
2023/05/06 01:11:05;;;;;;;14.20;9.57;;;;;;;10.49;100.00;96559.06;10453687;28;20211;-72
2023/05/06 01:16:08;;;;;;;12.43;9.47;;;;;;;10.45;100.00;96549.91;10435573;28;20240;-72
2023/05/06 01:21:09;;;;;;;11.17;8.63;;;;;;;10.57;100.00;96555.66;10434752;28;20200;-71
2023/05/06 01:26:09;;;;;;;13.30;8.40;;;;;;;10.60;100.00;96553.53;10453094;28;20569;-72
2023/05/06 01:31:18;;;;;;;15.70;9.73;;;;;;;10.50;100.00;96550.22;10453606;28;20219;-72
2023/05/06 01:36:28;;;;;;;9.63;7.97;;;;;;;10.59;100.00;96554.50;10435481;28;20227;-72
2023/05/06 01:41:30;;;;;;;11.50;8.77;;;;;;;10.60;100.00;96561.41;10435188;28;20188;-71
2023/05/06 01:46:31;;;;;;;10.13;8.43;;;;;;;10.56;100.00;96557.44;10435151;28;20763;-72
2023/05/06 01:51:33;;;;;;;13.27;8.93;;;;;;;10.60;100.00;96560.59;10452231;28;20198;-72
2023/05/06 01:56:33;;;;;;;11.67;8.33;;;;;;;10.67;100.00;96553.72;10452291;28;20278;-71
2023/05/06 02:01:33;;;;;;;14.07;10.30;;;;;;;10.64;100.00;96562.72;10434212;28;20283;-72
2023/05/06 02:06:34;;;;;;;15.43;9.60;;;;;;;10.63;100.00;96560.28;10451840;28;20554;-72
2023/05/06 02:11:34;;;;;;;10.50;7.73;;;;;;;10.70;100.00;96551.59;10434232;28;20271;-74
2023/05/06 02:16:38;;;;;;;11.70;7.67;;;;;;;10.75;100.00;96540.63;10433459;28;20227;-74
2023/05/06 02:21:38;;;;;;;9.97;7.90;;;;;;;10.76;100.00;96525.72;10433889;28;20184;-74
2023/05/06 02:26:39;;;;;;;12.57;8.50;;;;;;;10.75;100.00;96513.59;10433653;28;20246;-73
2023/05/06 02:31:39;;;;;;;8.90;7.27;;;;;;;10.68;100.00;96506.38;10457123;28;20191;-73
2023/05/06 02:36:40;;;;;;;10.47;7.40;;;;;;;10.76;100.00;96508.19;10459717;28;20720;-72
2023/05/06 02:41:40;;;;;;;8.63;6.47;;;;;;;10.75;100.00;96505.75;10459268;28;20636;-72
2023/05/06 02:46:42;;;;;;;11.50;6.77;;;;;;;10.74;100.00;96504.94;10430030;28;20690;-72
2023/05/06 02:51:42;;;;;;;10.33;7.60;;;;;;;10.68;100.00;96497.72;10417827;28;20204;-72
2023/05/06 02:56:45;;;;;;;11.33;7.70;;;;;;;10.66;100.00;96503.13;10417726;28;20702;-72
2023/05/06 03:01:45;;;;;;;10.60;8.67;;;;;;;10.60;100.00;96511.63;10417503;28;20210;-73
2023/05/06 03:06:45;;;;;;;14.03;9.17;;;;;;;10.67;100.00;96504.78;10439693;28;20220;-72
2023/05/06 03:11:47;;;;;;;11.33;8.40;;;;;;;10.68;100.00;96506.38;10440598;28;20195;-72
2023/05/06 03:16:48;;;;;;;10.90;9.30;;;;;;;10.59;100.00;96523.06;10439958;28;20848;-72
2023/05/06 03:21:49;;;;;;;14.63;10.93;;;;;;;10.55;100.00;96532.25;10440282;28;20329;-72
2023/05/06 03:26:52;;;;;;;14.30;10.33;;;;;;;10.61;100.00;96536.00;10432220;28;20311;-72
2023/05/06 03:31:56;;;;;;;13.13;10.33;;;;;;;10.66;100.00;96537.19;10398040;28;20248;-71
2023/05/06 03:36:57;;;;;;;10.63;8.93;;;;;;;10.80;100.00;96546.19;10397977;28;20228;-72
2023/05/06 03:42:01;;;;;;;11.90;8.80;;;;;;;10.84;100.00;96534.44;10397357;28;20193;-72
2023/05/06 03:47:02;;;;;;;9.33;7.40;;;;;;;10.85;100.00;96517.69;10398262;28;20583;-72
2023/05/06 03:52:04;;;;;;;10.82;8.05;;;;;;;10.69;100.00;96512.47;10397894;28;20220;-72
2023/05/06 03:57:05;;;;;;;8.43;7.00;;;;;;;10.74;100.00;96506.75;10381311;28;20598;-71
2023/05/06 04:02:06;;;;;;;9.73;6.70;;;;;;;10.78;100.00;96505.41;10397687;28;20203;-71
2023/05/06 04:07:09;;;;;;;7.47;6.63;;;;;;;10.73;100.00;96515.56;10397082;28;20209;-71
2023/05/06 04:12:10;;;;;;;8.30;7.35;;;;;;;10.77;100.00;96516.91;10414991;28;20212;-71
2023/05/06 04:17:10;;;;;;;9.27;7.43;;;;;;;10.74;100.00;96515.41;10396510;28;20232;-71
2023/05/06 04:22:11;;;;;;;13.23;11.00;;;;;;;10.92;100.00;96527.53;10396855;28;20279;-70
2023/05/06 04:27:12;;;;;;;11.63;9.17;;;;;;;11.09;100.00;96528.34;10414479;28;20686;-71
2023/05/06 04:32:16;;;;;;;10.68;7.97;;;;;;;11.31;100.00;96521.63;10396222;28;20280;-71
2023/05/06 04:37:20;;;;;;;13.38;11.18;;;;;;;11.45;100.00;96520.13;10396144;28;20725;-71
2023/05/06 04:42:25;;;;;;;19.50;13.07;;;;;;;11.34;100.00;96510.81;10395812;28;20220;-72
2023/05/06 04:47:36;;;;;;;21.13;15.77;;;;;;;11.41;100.00;96491.63;10395799;28;20188;-72
2023/05/06 04:52:39;;;;;;;19.88;16.10;;;;;;;11.43;100.00;96475.72;10394204;28;20213;-72
2023/05/06 04:57:40;;;;;;;21.58;15.45;;;;;;;11.63;100.00;96481.41;10395620;28;20212;-72
2023/05/06 05:02:40;;;;;;;16.30;14.05;;;;;;;11.73;100.00;96479.41;10395023;28;20209;-72
2023/05/06 05:07:41;;;;;;;21.35;16.95;;;;;;;11.57;100.00;96468.94;10395091;28;20206;-71
2023/05/06 05:17:48;;;;;;;28.92;20.88;;;;;;;11.33;100.00;96468.03;10364027;28;20251;-72
2023/05/06 05:22:48;;;;;;;26.90;21.42;;;;;;;11.64;100.00;96463.84;10354196;28;20200;-71
2023/05/06 05:27:49;;;;;;;24.98;20.60;;;;;;;11.78;100.00;96468.41;10354156;28;20195;-71
2023/05/06 05:32:49;;;;;;;27.23;20.13;;;;;;;11.60;100.00;96471.25;10353749;28;20193;-71
2023/05/06 05:37:50;;;;;;;27.05;22.52;;;;;;;11.49;100.00;96466.38;10353726;28;20240;-70
2023/05/06 05:42:51;;;;;;;27.38;20.73;;;;;;;11.49;100.00;96474.22;10353302;28;20275;-70
2023/05/06 05:47:59;;;;;;;26.83;19.05;;;;;;;11.42;100.00;96477.53;10353670;28;20703;-70
2023/05/06 05:53:00;;;;;;;21.35;17.48;;;;;;;11.66;100.00;96478.44;10370843;28;20197;-70
2023/05/06 05:58:01;;;;;;;21.52;17.50;;;;;;;11.87;100.00;96474.44;10352997;28;20252;-69
2023/05/06 06:03:02;;;;;;;21.45;16.00;;;;;;;11.89;100.00;96472.44;10351058;28;20220;-67
2023/05/06 06:08:03;;;;;;;20.10;16.20;;;;;;;11.74;100.00;96460.03;10353006;28;20181;-68
2023/05/06 06:13:04;;;;;;;19.15;15.13;;;;;;;11.99;100.00;96473.09;10336478;28;20244;-67
2023/05/06 06:18:07;;;;;;;19.00;14.75;;;;;;;11.96;100.00;96465.56;10352712;28;20249;-68
2023/05/06 06:23:08;;;;;;;19.92;15.77;;;;;;;12.12;100.00;96475.16;10352610;28;20304;-68
2023/05/06 06:28:09;;;;;;;22.05;15.32;;;;;;;12.16;100.00;96470.38;10353127;28;20276;-67
2023/05/06 06:33:10;;;;;;;23.80;18.92;;;;;;;11.94;100.00;96480.66;10351596;28;20348;-67
2023/05/06 06:38:10;;;;;;;23.70;18.83;;;;;;;11.58;100.00;96487.16;10352079;28;20228;-67
2023/05/06 06:43:10;;;;;;;22.35;18.45;;;;;;;11.68;100.00;96497.44;10369807;28;20711;-67
2023/05/06 06:48:32;;;;;;;22.50;18.48;;;;;;;11.65;100.00;96500.41;10352150;28;20198;-67
2023/05/06 06:53:33;;;;;;;23.30;17.13;;;;;;;11.76;100.00;96507.09;10369998;28;20220;-66
2023/05/06 06:58:33;;;;;;;19.48;15.05;;;;;;;11.91;100.00;96500.19;10364856;28;20288;-66
2023/05/06 07:03:33;;;;;;;17.48;15.27;;;;;;;12.17;100.00;96496.47;10368184;28;20213;-64
2023/05/06 07:08:34;;;;;;;20.65;15.43;;;;;;;12.27;100.00;96499.69;10368907;28;20212;-66
2023/05/06 07:13:34;;;;;;;19.35;14.80;;;;;;;12.55;100.00;96498.41;10366717;28;20267;-67
2023/05/06 07:18:35;;;;;;;18.60;15.15;;;;;;;12.77;100.00;96494.13;10371856;28;20220;-67
2023/05/06 07:23:35;;;;;;;18.17;14.18;;;;;;;12.79;100.00;96489.53;10374016;28;20215;-67
2023/05/06 07:28:35;;;;;;;15.30;13.45;;;;;;;12.12;100.00;96499.59;10373384;28;20196;-66
2023/05/06 07:33:36;;;;;;;12.43;10.45;;;;;;;12.07;100.00;96501.94;10373003;28;20205;-67
2023/05/06 07:38:36;;;;;;;15.48;12.05;;;;;;;12.78;100.00;96512.34;10372369;28;20256;-66
2023/05/06 07:43:37;;;;;;;11.10;9.90;;;;;;;13.14;100.00;96506.50;10371882;28;20299;-67
2023/05/06 07:48:37;;;;;;;14.05;9.93;;;;;;;12.52;100.00;96509.25;10373137;28;20193;-67
2023/05/06 07:53:39;;;;;;;13.10;10.95;;;;;;;12.06;100.00;96512.59;10372392;28;20208;-66
2023/05/06 07:58:39;;;;;;;13.75;11.18;;;;;;;12.37;100.00;96509.97;10370616;28;20621;-68
2023/05/06 08:03:39;;;;;;;14.90;12.15;;;;;;;12.73;100.00;96512.06;10372349;28;20221;-66
2023/05/06 08:08:40;;;;;;;13.10;11.65;;;;;;;13.26;100.00;96521.84;10370326;28;20193;-66
2023/05/06 08:13:40;;;;;;;15.02;13.05;;;;;;;13.38;100.00;96526.56;10369801;28;20364;-66
2023/05/06 08:18:41;;;;;;;20.92;16.48;;;;;;;12.89;100.00;96537.41;10369515;28;20236;-66
2023/05/06 08:23:41;;;;;;;23.63;17.52;;;;;;;12.69;100.00;96533.63;10369935;28;20216;-66
2023/05/06 08:28:41;;;;;;;23.85;19.40;;;;;;;12.88;100.00;96545.47;10371428;28;20193;-67
2023/05/06 08:33:42;;;;;;;26.55;20.25;;;;;;;12.31;100.00;96545.66;10371872;28;20304;-66
2023/05/06 08:38:47;;;;;;;27.45;22.75;;;;;;;12.10;100.00;96548.06;10371802;28;20225;-65
2023/05/06 08:43:49;;;;;;;29.80;22.02;;;;;;;12.49;100.00;96552.44;10371154;28;20228;-66
2023/05/06 08:48:49;;;;;;;24.20;20.00;;;;;;;13.68;100.00;96554.72;10370003;28;20197;-66
2023/05/06 08:53:50;;;;;;;22.63;17.85;;;;;;;14.72;100.00;96535.41;10370534;28;20213;-66
2023/05/06 08:58:51;;;;;;;21.05;18.80;;;;;;;14.49;100.00;96536.31;10352332;28;20236;-66
2023/05/06 09:03:51;;;;;;;18.63;16.63;;;;;;;14.04;100.00;96541.66;10370047;28;20205;-66
2023/05/06 09:08:52;;;;;;;20.13;17.20;;;;;;;13.64;100.00;96548.19;10405615;28;20564;-67
2023/05/06 09:14:14;;;;;;;21.30;18.13;;;;;;;13.95;100.00;96563.00;10411608;28;20240;-66
2023/05/06 09:19:19;;;;;;;20.92;18.38;;;;;;;13.67;100.00;96566.25;10419100;28;20239;-66
2023/05/06 09:24:26;;;;;;;19.95;17.42;;;;;;;13.42;100.00;96558.56;10370162;28;20696;-66
2023/05/06 09:29:27;;;;;;;18.33;16.42;;;;;;;14.44;100.00;96559.78;10377121;28;20197;-66
2023/05/06 09:35:24;;;;;;;19.88;17.20;;;;;;;14.83;100.00;96557.81;10374902;28;20213;-67
2023/05/06 09:40:25;;;;;;;20.63;16.95;;;;;;;14.56;100.00;96549.56;10316802;28;21072;-67
2023/05/06 09:45:25;;;;;;;20.15;18.05;;;;;;;15.02;100.00;96548.47;10368546;28;20213;-66
2023/05/06 09:50:26;;;;;;;23.63;17.88;;;;;;;16.01;100.00;96556.34;10367908;28;20571;-66
2023/05/06 09:55:27;;;;;;;16.13;14.35;;;;;;;17.24;87.54;96507.09;10367019;28;20253;-68
2023/05/06 10:00:29;;;;;;;16.98;14.30;;;;;;;16.57;85.60;96502.50;10368233;28;20311;-67
2023/05/06 10:05:30;;;;;;;15.07;12.98;;;;;;;15.48;87.53;96525.13;10349965;28;20586;-67
2023/05/06 10:10:32;;;;;;;18.85;13.27;;;;;;;15.13;93.67;96540.88;10363927;28;20654;-67
2023/05/06 10:15:33;;;;;;;17.88;13.32;;;;;;;15.01;93.47;96537.09;10368070;28;21002;-67
2023/05/06 10:20:34;;;;;;;15.02;12.15;;;;;;;16.00;89.17;96520.38;10350206;28;20185;-67
2023/05/06 10:25:36;;;;;;;16.27;13.88;;;;;;;15.94;87.42;96504.47;10366928;28;20831;-68
2023/05/06 10:30:38;;;;;;;15.98;13.00;;;;;;;16.05;87.30;96525.09;10368002;28;20675;-67
2023/05/06 10:35:47;;;;;;;18.63;14.43;;;;;;;15.36;93.35;96560.13;10373173;28;20277;-67
2023/05/06 10:40:49;;;;;;;18.05;14.13;;;;;;;15.59;91.18;96551.97;10352811;28;20186;-67
2023/05/06 10:46:08;;;;;;;19.83;15.77;;;;;;;15.16;92.30;96556.31;10352206;28;20228;-67
2023/05/06 10:51:26;;;;;;;18.65;15.43;;;;;;;15.00;93.10;96550.47;10372644;28;20197;-66
2023/05/06 10:56:26;;;;;;;20.35;16.10;;;;;;;15.25;93.68;96553.53;10377446;28;20287;-67
2023/05/06 11:01:27;;;;;;;16.65;13.77;;;;;;;16.42;85.06;96515.06;10359412;28;20232;-66
2023/05/06 11:06:32;;;;;;;18.63;13.65;;;;;;;17.11;83.33;96510.56;10377234;28;20213;-66
2023/05/06 11:11:46;;;;;;;21.08;15.80;;;;;;;17.02;81.64;96509.94;10359657;28;20357;-67
2023/05/06 11:16:48;;;;;;;17.75;13.95;;;;;;;16.33;80.83;96509.13;10428426;22;20276;-69
2023/05/06 11:21:49;;;;;;;19.90;14.10;;;;;;;16.30;85.84;96562.41;10415630;28;20193;-68
2023/05/06 11:26:49;;;;;;;13.98;12.00;;;;;;;17.86;78.04;96502.34;10397059;28;20217;-69
2023/05/06 11:31:51;;;;;;;12.23;9.45;;;;;;;19.26;68.13;96426.47;10416444;28;20567;-69
2023/05/06 11:36:57;;;;;;;11.85;10.55;;;;;;;19.52;67.08;96435.22;10398470;28;20308;-69
2023/05/06 11:42:01;;;;;;;12.80;9.45;;;;;;;18.20;66.34;96420.06;10416037;28;20203;-69
2023/05/06 11:47:08;;;;;;;11.00;7.72;;;;;;;17.87;70.03;96484.59;10415816;28;20303;-68
2023/05/06 11:52:10;;;;;;;9.13;7.63;;;;;;;18.49;65.74;96427.44;10415746;28;20189;-70
2023/05/06 11:57:10;;;;;;;10.10;8.30;;;;;;;18.70;66.60;96449.38;10415347;28;20247;-69
2023/05/06 12:02:12;;;;;;;11.65;7.97;;;;;;;18.71;64.41;96422.63;10414535;28;20254;-70
2023/05/06 12:07:14;;;;;;;10.02;8.25;;;;;;;18.77;63.05;96417.47;10415598;28;20582;-69
2023/05/06 12:12:16;;;;;;;8.75;7.72;;;;;;;17.90;65.80;96457.69;10414825;28;20201;-68
2023/05/06 12:17:17;;;;;;;11.77;7.75;;;;;;;18.51;65.16;96453.75;10446865;28;20779;-67
2023/05/06 12:22:21;;;;;;;14.77;9.40;;;;;;;17.87;71.96;96550.84;10437806;28;20192;-69
2023/05/06 12:27:31;;;;;;;11.98;9.30;;;;;;;19.85;65.41;96471.31;10455576;28;20295;-68
2023/05/06 12:32:32;;;;;;;12.07;8.95;;;;;;;18.63;66.04;96475.13;10455570;28;20191;-68
2023/05/06 12:37:32;;;;;;;12.25;9.10;;;;;;;19.31;67.03;96502.84;10453248;28;20232;-68
2023/05/06 12:42:32;;;;;;;12.32;8.90;;;;;;;20.57;62.91;96463.44;10455098;28;20725;-67
2023/05/06 12:47:33;;;;;;;11.30;9.00;;;;;;;21.14;59.98;96431.06;10454819;28;20574;-67
2023/05/06 12:52:42;;;;;;;9.55;7.13;;;;;;;21.85;54.85;96361.72;10436671;28;20629;-67
2023/05/06 12:57:42;;;;;;;7.53;6.75;;;;;;;22.57;52.42;96351.53;10419383;28;20711;-67
2023/05/06 13:02:43;;;;;;;10.82;6.80;;;;;;;21.22;54.53;96375.81;10412660;28;20204;-68
2023/05/06 13:07:43;;;;;;;8.52;7.10;;;;;;;19.37;60.23;96439.06;10412879;28;20212;-66
2023/05/06 13:12:43;;;;;;;10.95;8.20;;;;;;;18.45;63.89;96489.91;10412466;28;20200;-66
2023/05/06 13:17:44;;;;;;;14.25;8.23;;;;;;;17.89;66.46;96522.34;10428551;28;20254;-66
2023/05/06 13:22:44;;;;;;;10.30;8.60;;;;;;;17.43;67.62;96524.81;10430545;28;20188;-66
2023/05/06 13:27:44;;;;;;;11.60;8.98;;;;;;;16.96;70.12;96553.06;10426162;28;20222;-67
2023/05/06 13:32:45;;;;;;;10.60;8.63;;;;;;;17.16;69.03;96525.81;10430141;28;20224;-66
2023/05/06 13:37:46;;;;;;;10.65;8.77;;;;;;;16.57;71.36;96551.94;10428673;28;20234;-66
2023/05/06 13:42:46;;;;;;;10.18;8.40;;;;;;;16.66;71.25;96555.19;10428832;28;20283;-66
2023/05/06 13:47:46;;;;;;;10.13;7.80;;;;;;;17.47;68.27;96515.44;10429318;28;20216;-66
2023/05/06 13:52:47;;;;;;;8.18;6.35;;;;;;;16.94;68.07;96505.66;10428969;28;20249;-66
2023/05/06 13:57:47;;;;;;;8.93;6.50;;;;;;;19.11;63.27;96469.31;10428850;28;20303;-65
2023/05/06 14:02:47;;;;;;;7.95;6.38;;;;;;;21.61;54.08;96363.63;10434305;28;20200;-66
2023/05/06 14:07:48;;;;;;;6.63;5.03;;;;;;;23.08;49.04;96300.78;10451723;28;20277;-66
2023/05/06 14:12:48;;;;;;;6.05;5.15;;;;;;;21.62;51.52;96340.44;10451234;28;20226;-65
2023/05/06 14:17:49;;;;;;;7.85;6.00;;;;;;;18.96;60.47;96456.34;10450957;28;20228;-66
2023/05/06 14:22:49;;;;;;;9.55;7.85;;;;;;;17.92;67.68;96541.28;10451311;28;20187;-65
2023/05/06 14:27:50;;;;;;;13.52;9.38;;;;;;;17.50;70.86;96566.38;10456846;28;20203;-65
2023/05/06 14:32:50;;;;;;;12.20;9.40;;;;;;;17.90;72.12;96579.63;10459867;28;20198;-65
2023/05/06 14:37:51;;;;;;;13.57;8.45;;;;;;;18.90;68.44;96539.50;10441029;28;20227;-65
2023/05/06 14:42:52;;;;;;;11.98;7.82;;;;;;;19.00;66.57;96517.78;10434534;28;20279;-65
2023/05/06 14:47:52;;;;;;;9.50;8.05;;;;;;;21.15;61.10;96470.00;10417614;28;20736;-65
2023/05/06 14:52:53;;;;;;;11.82;9.50;;;;;;;19.01;64.67;96504.28;10417655;28;20216;-65
2023/05/06 14:57:53;;;;;;;13.95;10.98;;;;;;;17.10;73.58;96602.38;10491614;28;20223;-65
2023/05/06 15:02:53;;;;;;;15.43;11.27;;;;;;;16.64;75.81;96621.53;10500179;28;20202;-65
2023/05/06 15:07:54;;;;;;;16.88;13.00;;;;;;;15.92;78.93;96625.41;10500129;28;20231;-65
2023/05/06 15:12:54;;;;;;;14.73;11.48;;;;;;;16.20;79.82;96626.19;10499658;28;20265;-65
2023/05/06 15:17:55;;;;;;;15.70;12.90;;;;;;;15.41;83.26;96639.56;10498999;28;20231;-65
2023/05/06 15:22:55;;;;;;;18.85;12.93;;;;;;;15.62;82.15;96628.16;10499274;28;20191;-65
2023/05/06 15:27:55;;;;;;;19.27;12.90;;;;;;;15.08;84.57;96634.78;10499450;28;20249;-65
2023/05/06 15:32:56;;;;;;;21.27;13.40;;;;;;;15.30;84.79;96641.72;10499132;28;20206;-65
2023/05/06 15:37:57;;;;;;;19.30;13.38;;;;;;;15.83;84.04;96632.63;10498095;28;20223;-65
2023/05/06 15:42:58;;;;;;;18.85;12.65;;;;;;;16.73;78.66;96609.75;10498928;28;20211;-65
2023/05/06 15:47:58;;;;;;;18.05;13.43;;;;;;;16.57;78.58;96608.28;10498788;28;20211;-65
2023/05/06 15:52:58;;;;;;;17.35;12.65;;;;;;;16.81;75.50;96589.44;10498630;28;20202;-65
2023/05/06 15:57:59;;;;;;;16.30;13.75;;;;;;;15.42;80.76;96628.00;10498310;28;20219;-65
2023/05/06 16:02:59;;;;;;;21.35;14.90;;;;;;;14.73;83.87;96643.31;10498350;28;20275;-65
2023/05/06 16:08:00;;;;;;;18.25;14.30;;;;;;;14.29;86.56;96657.31;10497882;28;20212;-65
2023/05/06 16:13:00;;;;;;;22.88;15.15;;;;;;;13.89;91.68;96667.25;10497829;28;20195;-65
2023/05/06 16:18:00;;;;;;;21.65;14.63;;;;;;;13.87;91.60;96656.06;10497405;28;20234;-65
2023/05/06 16:23:01;;;;;;;24.10;15.18;;;;;;;13.89;92.21;96660.16;10497289;28;20234;-65
2023/05/06 16:28:02;;;;;;;20.02;14.88;;;;;;;13.91;91.88;96662.63;10497473;28;20207;-65
2023/05/06 16:33:03;;;;;;;28.23;18.23;;;;;;;13.11;98.19;96679.59;10496904;28;20293;-65
2023/05/06 16:38:04;;;;;;;25.85;16.33;;;;;;;13.09;100.00;96676.34;10496686;28;20562;-65
2023/05/06 16:43:04;;;;;;;27.35;17.95;;;;;;;13.14;100.00;96666.94;10496480;28;20194;-65
2023/05/06 16:48:05;;;;;;;26.50;16.70;;;;;;;13.24;100.00;96660.66;10496163;28;20203;-65
2023/05/06 16:53:08;;;;;;;25.63;17.98;;;;;;;13.48;99.72;96660.50;10496295;28;20203;-65
2023/05/06 16:58:08;;;;;;;24.42;17.20;;;;;;;13.37;98.04;96660.91;10495830;28;20207;-65
2023/05/06 17:03:09;;;;;;;26.55;16.95;;;;;;;13.15;100.00;96673.00;10495867;28;20206;-65
2023/05/06 17:08:09;;;;;;;27.25;16.83;;;;;;;12.73;100.00;96680.31;10495471;28;20199;-65
2023/05/06 17:13:10;;;;;;;27.88;18.48;;;;;;;12.60;100.00;96669.50;10495437;28;20199;-65
2023/05/06 17:18:10;;;;;;;26.83;18.55;;;;;;;12.31;100.00;96674.38;10439347;22;20283;-64
2023/05/06 17:23:10;;;;;;;28.08;18.05;;;;;;;12.51;100.00;96681.88;10413071;28;20201;-65
2023/05/06 17:28:11;;;;;;;26.33;17.30;;;;;;;12.28;100.00;96679.13;10412639;28;20351;-65
2023/05/06 17:33:11;;;;;;;23.60;17.10;;;;;;;12.18;100.00;96679.31;10413638;28;20196;-65
2023/05/06 17:38:11;;;;;;;27.95;19.10;;;;;;;11.90;100.00;96690.16;10412710;28;20223;-65
2023/05/06 17:43:12;;;;;;;25.27;17.75;;;;;;;11.84;100.00;96692.59;10411804;28;20616;-64
2023/05/06 17:48:12;;;;;;;28.92;19.05;;;;;;;11.81;100.00;96695.56;10411418;28;20349;-65
2023/05/06 17:53:12;;;;;;;29.02;18.50;;;;;;;11.55;100.00;96701.81;10411364;28;20204;-65
2023/05/06 17:58:13;;;;;;;26.52;17.30;;;;;;;11.39;100.00;96706.06;10411155;28;20223;-64
2023/05/06 18:03:13;;;;;;;26.50;18.08;;;;;;;11.29;100.00;96705.38;10410639;28;20207;-64
2023/05/06 18:08:14;;;;;;;25.27;18.08;;;;;;;11.43;100.00;96722.28;10411231;28;20208;-66
2023/05/06 18:13:14;;;;;;;26.77;17.25;;;;;;;11.28;100.00;96716.03;10411032;28;20200;-66
2023/05/06 18:18:14;;;;;;;24.05;17.13;;;;;;;11.13;100.00;96724.50;10410461;28;20591;-64
2023/05/06 18:23:15;;;;;;;27.92;16.95;;;;;;;11.12;100.00;96737.75;10410760;28;20284;-64
2023/05/06 18:28:15;;;;;;;25.17;17.23;;;;;;;11.10;100.00;96727.44;10410597;28;20217;-65
2023/05/06 18:33:16;;;;;;;22.48;16.35;;;;;;;11.05;100.00;96733.16;10410580;28;20697;-64
2023/05/06 18:38:16;;;;;;;20.88;15.70;;;;;;;11.17;100.00;96753.84;10410412;28;20307;-65
2023/05/06 18:43:16;;;;;;;28.42;17.45;;;;;;;11.06;100.00;96750.53;10410388;28;20189;-64
2023/05/06 18:48:18;;;;;;;24.02;16.38;;;;;;;11.04;100.00;96744.63;10410062;28;20822;-65
2023/05/06 18:53:19;;;;;;;24.57;15.83;;;;;;;10.73;100.00;96746.94;10410108;28;20220;-65
2023/05/06 18:58:19;;;;;;;28.77;17.20;;;;;;;10.68;100.00;96760.53;10410102;28;20704;-64
2023/05/06 19:08:50;;;;;;;27.43;17.73;;;;;;;10.55;100.00;96762.75;10788275;23;20248;-65
2023/05/06 19:14:13;;;;;;;30.73;18.23;;;;;;;10.35;100.00;96775.22;10466962;28;20228;-66
2023/05/06 19:19:13;;;;;;;29.73;19.07;;;;;;;10.33;100.00;96770.13;10458058;28;20310;-65
2023/05/06 19:24:13;;;;;;;29.70;17.87;;;;;;;10.32;100.00;96767.63;10457675;28;20660;-64
2023/05/06 19:29:14;;;;;;;33.17;19.03;;;;;;;10.33;100.00;96762.28;10457726;28;20553;-65
2023/05/06 19:34:14;;;;;;;29.60;19.90;;;;;;;10.35;100.00;96757.72;10457089;28;20547;-65
2023/05/06 19:39:15;;;;;;;37.27;21.33;;;;;;;10.20;100.00;96766.25;10457399;28;20314;-65
2023/05/06 19:44:15;;;;;;;27.63;19.35;;;;;;;10.16;100.00;96766.53;10457084;28;20212;-65
2023/05/06 19:49:15;;;;;;;28.57;19.57;;;;;;;9.97;100.00;96771.97;10456967;28;20267;-65
2023/05/06 19:54:18;;;;;;;39.80;21.70;;;;;;;9.81;100.00;96776.06;10456792;28;20219;-66
2023/05/06 19:59:18;;;;;;;31.13;19.20;;;;;;;9.82;100.00;96772.50;10456504;28;20557;-66
2023/05/06 20:04:19;;;;;;;31.03;20.10;;;;;;;9.70;100.00;96770.28;10434774;28;20291;-66
2023/05/06 20:09:19;;;;;;;29.50;19.70;;;;;;;9.56;100.00;96766.38;10392731;28;20220;-66
2023/05/06 20:14:20;;;;;;;33.13;19.43;;;;;;;9.46;100.00;96771.66;10394062;28;20218;-65
2023/05/06 20:19:20;;;;;;;26.77;18.17;;;;;;;9.46;100.00;96777.72;10392911;28;20229;-66
2023/05/06 20:24:22;;;;;;;27.87;17.40;;;;;;;9.27;100.00;96785.69;10385116;28;20221;-66
2023/05/06 20:29:22;;;;;;;23.73;15.83;;;;;;;9.27;100.00;96786.50;10373639;28;20213;-66
2023/05/06 20:34:23;;;;;;;24.83;17.10;;;;;;;9.27;100.00;96783.88;10384227;28;20220;-65
2023/05/06 20:39:23;;;;;;;28.50;18.57;;;;;;;9.39;100.00;96781.09;10414105;28;20220;-66
2023/05/06 20:44:24;;;;;;;26.63;17.67;;;;;;;9.31;100.00;96787.03;10413759;28;20216;-66
2023/05/06 20:49:24;;;;;;;26.27;17.20;;;;;;;9.24;100.00;96783.38;10413764;28;20307;-65
2023/05/06 20:54:25;;;;;;;27.23;17.70;;;;;;;9.19;100.00;96798.66;10413281;28;20695;-65
2023/05/06 20:59:28;;;;;;;28.83;19.00;;;;;;;9.14;100.00;96803.50;10413096;28;20299;-65
2023/05/06 21:04:28;;;;;;;29.60;18.97;;;;;;;9.04;100.00;96799.13;10412869;28;20657;-65
2023/05/06 21:09:28;;;;;;;28.77;18.80;;;;;;;8.94;100.00;96811.41;10412283;28;20303;-65
2023/05/06 21:14:29;;;;;;;28.43;17.87;;;;;;;8.99;100.00;96811.81;10412793;28;20217;-66
2023/05/06 21:19:29;;;;;;;28.80;18.43;;;;;;;8.88;100.00;96820.66;10412573;28;20208;-66
2023/05/06 21:24:30;;;;;;;25.83;17.80;;;;;;;8.69;100.00;96824.16;10412456;28;20253;-65
2023/05/06 21:29:30;;;;;;;31.10;17.03;;;;;;;8.63;100.00;96821.28;10412233;28;20196;-66
2023/05/06 21:34:30;;;;;;;27.93;17.03;;;;;;;8.61;100.00;96821.44;10411205;28;20251;-66
2023/05/06 21:39:31;;;;;;;24.17;16.27;;;;;;;8.53;100.00;96821.28;10412076;28;20278;-66
2023/05/06 21:44:31;;;;;;;23.90;15.10;;;;;;;8.70;100.00;96832.81;10411480;28;20235;-66
2023/05/06 21:49:31;;;;;;;21.30;13.73;;;;;;;8.65;100.00;96827.19;10411928;28;20188;-65
2023/05/06 21:54:32;;;;;;;22.23;14.93;;;;;;;8.52;100.00;96825.69;10395635;28;20223;-65
2023/05/06 21:59:33;;;;;;;23.40;14.60;;;;;;;8.60;100.00;96830.22;10387481;28;20280;-66
2023/05/06 22:04:34;;;;;;;24.03;14.93;;;;;;;8.67;100.00;96827.88;10376984;28;20300;-65
2023/05/06 22:09:34;;;;;;;27.77;14.57;;;;;;;8.72;100.00;96829.09;10384838;28;20232;-65
2023/05/06 22:14:35;;;;;;;19.63;13.43;;;;;;;8.72;100.00;96825.66;10386362;28;20240;-65
2023/05/06 22:19:35;;;;;;;20.17;13.57;;;;;;;8.77;100.00;96820.00;10369873;28;20259;-65
2023/05/06 22:24:35;;;;;;;20.20;12.87;;;;;;;8.79;100.00;96823.28;10387628;28;20216;-66
2023/05/06 22:29:36;;;;;;;17.73;12.37;;;;;;;8.86;100.00;96832.22;10409005;28;20254;-65
2023/05/06 22:34:36;;;;;;;18.63;12.50;;;;;;;8.75;100.00;96831.41;10409334;28;20295;-65
2023/05/06 22:39:36;;;;;;;20.00;12.43;;;;;;;8.78;100.00;96824.28;10409168;28;20203;-66
2023/05/06 22:44:37;;;;;;;18.50;11.53;;;;;;;8.82;100.00;96831.69;10410195;28;20213;-66
2023/05/06 22:49:37;;;;;;;16.40;11.20;;;;;;;8.84;100.00;96829.75;10407094;28;20279;-65
2023/05/06 22:54:37;;;;;;;19.20;13.27;;;;;;;8.83;100.00;96833.31;10377545;28;20217;-65